sensor_id;sensor_type;location;lat;lon;timestamp;P1;durP1;ratioP1;P2;durP2;ratioP2
10116;SDS011;5098;48.792;9.012;2022-07-06T00:01:33;4.53;;;3.30;;
10116;SDS011;5098;48.792;9.012;2022-07-06T00:04:01;3.47;;;2.83;;
10116;SDS011;5098;48.792;9.012;2022-07-06T00:06:27;9.20;;;3.70;;
10116;SDS011;5098;48.792;9.012;2022-07-06T00:08:53;3.40;;;3.10;;
10116;SDS011;5098;48.792;9.012;2022-07-06T00:11:19;5.03;;;2.70;;
10116;SDS011;5098;48.792;9.012;2022-07-06T00:13:45;4.30;;;3.07;;
10116;SDS011;5098;48.792;9.012;2022-07-06T00:16:12;3.60;;;3.30;;
10116;SDS011;5098;48.792;9.012;2022-07-06T00:18:38;3.20;;;2.73;;
10116;SDS011;5098;48.792;9.012;2022-07-06T00:21:04;3.23;;;2.90;;
10116;SDS011;5098;48.792;9.012;2022-07-06T00:23:30;3.43;;;3.13;;
10116;SDS011;5098;48.792;9.012;2022-07-06T00:25:56;3.20;;;2.73;;
10116;SDS011;5098;48.792;9.012;2022-07-06T00:28:22;3.80;;;3.23;;
10116;SDS011;5098;48.792;9.012;2022-07-06T00:30:49;3.53;;;2.60;;
10116;SDS011;5098;48.792;9.012;2022-07-06T00:33:15;4.17;;;2.97;;
10116;SDS011;5098;48.792;9.012;2022-07-06T00:35:41;5.20;;;3.30;;
10116;SDS011;5098;48.792;9.012;2022-07-06T00:38:07;3.63;;;3.10;;
10116;SDS011;5098;48.792;9.012;2022-07-06T00:40:33;4.13;;;3.73;;
10116;SDS011;5098;48.792;9.012;2022-07-06T00:42:59;4.30;;;3.90;;
10116;SDS011;5098;48.792;9.012;2022-07-06T00:45:25;5.13;;;3.57;;
10116;SDS011;5098;48.792;9.012;2022-07-06T00:47:51;9.90;;;3.67;;
10116;SDS011;5098;48.792;9.012;2022-07-06T00:50:18;5.40;;;3.60;;
10116;SDS011;5098;48.792;9.012;2022-07-06T00:52:48;4.40;;;3.47;;
10116;SDS011;5098;48.792;9.012;2022-07-06T00:55:15;8.90;;;3.77;;
10116;SDS011;5098;48.792;9.012;2022-07-06T00:57:42;7.23;;;3.80;;
10116;SDS011;5098;48.792;9.012;2022-07-06T01:00:09;4.50;;;3.37;;
10116;SDS011;5098;48.792;9.012;2022-07-06T01:02:36;4.33;;;3.60;;
10116;SDS011;5098;48.792;9.012;2022-07-06T01:05:05;4.33;;;3.63;;
10116;SDS011;5098;48.792;9.012;2022-07-06T01:07:31;4.87;;;3.50;;
10116;SDS011;5098;48.792;9.012;2022-07-06T01:09:57;4.00;;;3.70;;
10116;SDS011;5098;48.792;9.012;2022-07-06T01:12:24;3.70;;;3.30;;
10116;SDS011;5098;48.792;9.012;2022-07-06T01:14:50;4.83;;;3.40;;
10116;SDS011;5098;48.792;9.012;2022-07-06T01:17:17;4.33;;;3.93;;
10116;SDS011;5098;48.792;9.012;2022-07-06T01:19:43;3.77;;;3.13;;
10116;SDS011;5098;48.792;9.012;2022-07-06T01:22:09;3.37;;;3.10;;
10116;SDS011;5098;48.792;9.012;2022-07-06T01:24:36;5.17;;;3.37;;
10116;SDS011;5098;48.792;9.012;2022-07-06T01:27:05;3.97;;;3.57;;
10116;SDS011;5098;48.792;9.012;2022-07-06T01:29:31;4.30;;;3.90;;
10116;SDS011;5098;48.792;9.012;2022-07-06T01:31:58;5.77;;;3.43;;
10116;SDS011;5098;48.792;9.012;2022-07-06T01:34:24;5.90;;;3.73;;
10116;SDS011;5098;48.792;9.012;2022-07-06T01:36:50;8.50;;;3.63;;
10116;SDS011;5098;48.792;9.012;2022-07-06T01:39:16;3.80;;;3.40;;
10116;SDS011;5098;48.792;9.012;2022-07-06T01:41:42;3.53;;;3.20;;
10116;SDS011;5098;48.792;9.012;2022-07-06T01:44:08;3.73;;;3.27;;
10116;SDS011;5098;48.792;9.012;2022-07-06T01:46:34;3.13;;;2.83;;
10116;SDS011;5098;48.792;9.012;2022-07-06T01:49:01;4.10;;;3.27;;
10116;SDS011;5098;48.792;9.012;2022-07-06T01:51:27;4.27;;;3.50;;
10116;SDS011;5098;48.792;9.012;2022-07-06T01:53:53;3.90;;;3.60;;
10116;SDS011;5098;48.792;9.012;2022-07-06T01:56:19;3.67;;;3.33;;
10116;SDS011;5098;48.792;9.012;2022-07-06T01:58:46;4.07;;;3.50;;
10116;SDS011;5098;48.792;9.012;2022-07-06T02:01:13;4.10;;;3.47;;
10116;SDS011;5098;48.792;9.012;2022-07-06T02:03:39;6.20;;;3.13;;
10116;SDS011;5098;48.792;9.012;2022-07-06T02:06:05;4.97;;;3.43;;
10116;SDS011;5098;48.792;9.012;2022-07-06T02:08:32;5.77;;;3.60;;
10116;SDS011;5098;48.792;9.012;2022-07-06T02:10:58;3.53;;;3.10;;
10116;SDS011;5098;48.792;9.012;2022-07-06T02:13:25;3.70;;;3.40;;
10116;SDS011;5098;48.792;9.012;2022-07-06T02:15:51;5.93;;;3.20;;
10116;SDS011;5098;48.792;9.012;2022-07-06T02:18:17;6.13;;;3.57;;
10116;SDS011;5098;48.792;9.012;2022-07-06T02:20:43;4.27;;;2.97;;
10116;SDS011;5098;48.792;9.012;2022-07-06T02:23:09;4.23;;;3.23;;
10116;SDS011;5098;48.792;9.012;2022-07-06T02:25:35;5.23;;;3.43;;
10116;SDS011;5098;48.792;9.012;2022-07-06T02:28:01;3.97;;;3.57;;
10116;SDS011;5098;48.792;9.012;2022-07-06T02:30:28;4.00;;;3.63;;
10116;SDS011;5098;48.792;9.012;2022-07-06T02:32:54;5.67;;;3.00;;
10116;SDS011;5098;48.792;9.012;2022-07-06T02:35:20;6.47;;;3.60;;
10116;SDS011;5098;48.792;9.012;2022-07-06T02:37:46;4.43;;;3.73;;
10116;SDS011;5098;48.792;9.012;2022-07-06T02:40:12;3.77;;;3.40;;
10116;SDS011;5098;48.792;9.012;2022-07-06T02:42:38;4.20;;;3.77;;
10116;SDS011;5098;48.792;9.012;2022-07-06T02:45:04;4.50;;;3.30;;
10116;SDS011;5098;48.792;9.012;2022-07-06T02:47:31;3.33;;;3.00;;
10116;SDS011;5098;48.792;9.012;2022-07-06T02:49:57;3.87;;;3.10;;
10116;SDS011;5098;48.792;9.012;2022-07-06T02:52:23;4.63;;;3.27;;
10116;SDS011;5098;48.792;9.012;2022-07-06T02:54:49;3.80;;;3.40;;
10116;SDS011;5098;48.792;9.012;2022-07-06T02:57:15;4.70;;;3.63;;
10116;SDS011;5098;48.792;9.012;2022-07-06T02:59:41;5.00;;;3.37;;
10116;SDS011;5098;48.792;9.012;2022-07-06T03:02:07;4.17;;;3.87;;
10116;SDS011;5098;48.792;9.012;2022-07-06T03:04:33;4.60;;;4.10;;
10116;SDS011;5098;48.792;9.012;2022-07-06T03:07:00;5.47;;;3.90;;
10116;SDS011;5098;48.792;9.012;2022-07-06T03:09:26;4.97;;;4.00;;
10116;SDS011;5098;48.792;9.012;2022-07-06T03:11:52;3.60;;;3.30;;
10116;SDS011;5098;48.792;9.012;2022-07-06T03:14:18;4.47;;;4.07;;
10116;SDS011;5098;48.792;9.012;2022-07-06T03:16:45;4.17;;;3.83;;
10116;SDS011;5098;48.792;9.012;2022-07-06T03:19:11;4.13;;;3.83;;
10116;SDS011;5098;48.792;9.012;2022-07-06T03:21:37;4.23;;;3.83;;
10116;SDS011;5098;48.792;9.012;2022-07-06T03:24:03;4.57;;;3.80;;
10116;SDS011;5098;48.792;9.012;2022-07-06T03:26:29;5.23;;;4.00;;
10116;SDS011;5098;48.792;9.012;2022-07-06T03:28:55;5.17;;;4.00;;
10116;SDS011;5098;48.792;9.012;2022-07-06T03:31:21;6.30;;;4.13;;
10116;SDS011;5098;48.792;9.012;2022-07-06T03:33:47;7.30;;;4.10;;
10116;SDS011;5098;48.792;9.012;2022-07-06T03:36:14;4.50;;;3.70;;
10116;SDS011;5098;48.792;9.012;2022-07-06T03:38:40;4.60;;;3.93;;
10116;SDS011;5098;48.792;9.012;2022-07-06T03:41:06;8.50;;;4.77;;
10116;SDS011;5098;48.792;9.012;2022-07-06T03:43:32;7.60;;;3.77;;
10116;SDS011;5098;48.792;9.012;2022-07-06T03:45:59;4.60;;;4.13;;
10116;SDS011;5098;48.792;9.012;2022-07-06T03:48:25;4.80;;;4.00;;
10116;SDS011;5098;48.792;9.012;2022-07-06T03:50:51;5.87;;;4.60;;
10116;SDS011;5098;48.792;9.012;2022-07-06T03:53:17;5.40;;;4.20;;
10116;SDS011;5098;48.792;9.012;2022-07-06T03:55:43;4.80;;;3.87;;
10116;SDS011;5098;48.792;9.012;2022-07-06T03:58:29;5.10;;;4.40;;
10116;SDS011;5098;48.792;9.012;2022-07-06T04:00:55;4.43;;;4.10;;
10116;SDS011;5098;48.792;9.012;2022-07-06T04:03:21;4.90;;;4.40;;
10116;SDS011;5098;48.792;9.012;2022-07-06T04:05:47;10.67;;;4.67;;
10116;SDS011;5098;48.792;9.012;2022-07-06T04:08:13;4.77;;;4.30;;
10116;SDS011;5098;48.792;9.012;2022-07-06T04:10:39;5.40;;;4.40;;
10116;SDS011;5098;48.792;9.012;2022-07-06T04:13:05;4.73;;;4.13;;
10116;SDS011;5098;48.792;9.012;2022-07-06T04:15:32;5.37;;;4.87;;
10116;SDS011;5098;48.792;9.012;2022-07-06T04:17:58;5.20;;;4.73;;
10116;SDS011;5098;48.792;9.012;2022-07-06T04:20:24;6.00;;;4.30;;
10116;SDS011;5098;48.792;9.012;2022-07-06T04:22:53;5.43;;;4.83;;
10116;SDS011;5098;48.792;9.012;2022-07-06T04:25:19;5.80;;;5.03;;
10116;SDS011;5098;48.792;9.012;2022-07-06T04:27:45;7.23;;;5.40;;
10116;SDS011;5098;48.792;9.012;2022-07-06T04:30:11;6.17;;;5.00;;
10116;SDS011;5098;48.792;9.012;2022-07-06T04:32:37;5.83;;;5.20;;
10116;SDS011;5098;48.792;9.012;2022-07-06T04:35:04;6.43;;;5.80;;
10116;SDS011;5098;48.792;9.012;2022-07-06T04:37:30;5.30;;;4.90;;
10116;SDS011;5098;48.792;9.012;2022-07-06T04:39:57;6.10;;;5.50;;
10116;SDS011;5098;48.792;9.012;2022-07-06T04:42:23;6.00;;;5.50;;
10116;SDS011;5098;48.792;9.012;2022-07-06T04:44:50;9.30;;;5.60;;
10116;SDS011;5098;48.792;9.012;2022-07-06T04:47:19;8.73;;;5.97;;
10116;SDS011;5098;48.792;9.012;2022-07-06T04:49:45;10.47;;;5.93;;
10116;SDS011;5098;48.792;9.012;2022-07-06T04:52:11;5.90;;;5.30;;
10116;SDS011;5098;48.792;9.012;2022-07-06T04:54:37;8.53;;;5.63;;
10116;SDS011;5098;48.792;9.012;2022-07-06T04:57:03;6.47;;;5.87;;
10116;SDS011;5098;48.792;9.012;2022-07-06T04:59:29;5.53;;;5.13;;
10116;SDS011;5098;48.792;9.012;2022-07-06T05:01:56;6.30;;;5.40;;
10116;SDS011;5098;48.792;9.012;2022-07-06T05:04:22;6.63;;;6.13;;
10116;SDS011;5098;48.792;9.012;2022-07-06T05:06:49;6.07;;;5.47;;
10116;SDS011;5098;48.792;9.012;2022-07-06T05:09:16;6.30;;;5.17;;
10116;SDS011;5098;48.792;9.012;2022-07-06T05:11:42;5.43;;;4.87;;
10116;SDS011;5098;48.792;9.012;2022-07-06T05:14:09;6.03;;;5.43;;
10116;SDS011;5098;48.792;9.012;2022-07-06T05:16:35;6.47;;;5.10;;
10116;SDS011;5098;48.792;9.012;2022-07-06T05:19:01;7.63;;;5.23;;
10116;SDS011;5098;48.792;9.012;2022-07-06T05:21:28;6.00;;;5.50;;
10116;SDS011;5098;48.792;9.012;2022-07-06T05:23:54;5.73;;;5.23;;
10116;SDS011;5098;48.792;9.012;2022-07-06T05:26:20;5.33;;;4.93;;
10116;SDS011;5098;48.792;9.012;2022-07-06T05:28:46;7.30;;;5.70;;
10116;SDS011;5098;48.792;9.012;2022-07-06T05:31:12;5.40;;;4.77;;
10116;SDS011;5098;48.792;9.012;2022-07-06T05:33:38;5.10;;;4.60;;
10116;SDS011;5098;48.792;9.012;2022-07-06T05:36:04;6.43;;;4.50;;
10116;SDS011;5098;48.792;9.012;2022-07-06T05:38:30;5.93;;;4.43;;
10116;SDS011;5098;48.792;9.012;2022-07-06T05:40:57;7.20;;;4.70;;
10116;SDS011;5098;48.792;9.012;2022-07-06T05:43:23;4.60;;;4.20;;
10116;SDS011;5098;48.792;9.012;2022-07-06T05:45:49;5.73;;;5.23;;
10116;SDS011;5098;48.792;9.012;2022-07-06T05:48:15;5.03;;;4.10;;
10116;SDS011;5098;48.792;9.012;2022-07-06T05:51:00;5.73;;;3.70;;
10116;SDS011;5098;48.792;9.012;2022-07-06T05:53:26;6.23;;;4.50;;
10116;SDS011;5098;48.792;9.012;2022-07-06T05:55:52;4.53;;;4.13;;
10116;SDS011;5098;48.792;9.012;2022-07-06T05:58:18;4.30;;;4.00;;
10116;SDS011;5098;48.792;9.012;2022-07-06T06:00:44;5.70;;;4.03;;
10116;SDS011;5098;48.792;9.012;2022-07-06T06:03:10;6.80;;;4.60;;
10116;SDS011;5098;48.792;9.012;2022-07-06T06:05:37;5.83;;;4.40;;
10116;SDS011;5098;48.792;9.012;2022-07-06T06:08:03;5.53;;;4.07;;
10116;SDS011;5098;48.792;9.012;2022-07-06T06:10:29;4.57;;;4.17;;
10116;SDS011;5098;48.792;9.012;2022-07-06T06:12:55;4.10;;;3.80;;
10116;SDS011;5098;48.792;9.012;2022-07-06T06:15:21;4.70;;;4.23;;
10116;SDS011;5098;48.792;9.012;2022-07-06T06:17:47;5.40;;;4.67;;
10116;SDS011;5098;48.792;9.012;2022-07-06T06:20:13;12.43;;;3.63;;
10116;SDS011;5098;48.792;9.012;2022-07-06T06:22:44;5.50;;;3.90;;
10116;SDS011;5098;48.792;9.012;2022-07-06T06:25:10;5.30;;;4.00;;
10116;SDS011;5098;48.792;9.012;2022-07-06T06:27:36;5.30;;;3.53;;
10116;SDS011;5098;48.792;9.012;2022-07-06T06:30:03;4.40;;;3.20;;
10116;SDS011;5098;48.792;9.012;2022-07-06T06:32:29;5.40;;;3.67;;
10116;SDS011;5098;48.792;9.012;2022-07-06T06:34:55;5.07;;;3.57;;
10116;SDS011;5098;48.792;9.012;2022-07-06T06:37:21;4.30;;;3.60;;
10116;SDS011;5098;48.792;9.012;2022-07-06T06:39:47;3.43;;;3.13;;
10116;SDS011;5098;48.792;9.012;2022-07-06T06:42:13;5.67;;;3.40;;
10116;SDS011;5098;48.792;9.012;2022-07-06T06:44:39;8.70;;;3.90;;
10116;SDS011;5098;48.792;9.012;2022-07-06T06:47:05;6.53;;;3.70;;
10116;SDS011;5098;48.792;9.012;2022-07-06T06:49:31;4.37;;;3.60;;
10116;SDS011;5098;48.792;9.012;2022-07-06T06:51:57;6.97;;;3.30;;
10116;SDS011;5098;48.792;9.012;2022-07-06T06:54:23;3.67;;;3.30;;
10116;SDS011;5098;48.792;9.012;2022-07-06T06:56:49;5.03;;;3.57;;
10116;SDS011;5098;48.792;9.012;2022-07-06T06:59:16;6.90;;;3.47;;
10116;SDS011;5098;48.792;9.012;2022-07-06T07:01:42;3.43;;;2.87;;
10116;SDS011;5098;48.792;9.012;2022-07-06T07:04:08;6.93;;;3.17;;
10116;SDS011;5098;48.792;9.012;2022-07-06T07:06:34;3.30;;;3.00;;
10116;SDS011;5098;48.792;9.012;2022-07-06T07:09:00;3.63;;;2.63;;
10116;SDS011;5098;48.792;9.012;2022-07-06T07:11:26;7.60;;;3.33;;
10116;SDS011;5098;48.792;9.012;2022-07-06T07:13:52;3.60;;;2.90;;
10116;SDS011;5098;48.792;9.012;2022-07-06T07:16:19;4.03;;;3.00;;
10116;SDS011;5098;48.792;9.012;2022-07-06T07:18:45;3.70;;;2.63;;
10116;SDS011;5098;48.792;9.012;2022-07-06T07:21:11;4.20;;;2.87;;
10116;SDS011;5098;48.792;9.012;2022-07-06T07:23:37;4.33;;;2.77;;
10116;SDS011;5098;48.792;9.012;2022-07-06T07:26:04;5.10;;;2.73;;
10116;SDS011;5098;48.792;9.012;2022-07-06T07:28:30;4.03;;;3.13;;
10116;SDS011;5098;48.792;9.012;2022-07-06T07:30:56;4.13;;;3.03;;
10116;SDS011;5098;48.792;9.012;2022-07-06T07:33:22;3.20;;;2.83;;
10116;SDS011;5098;48.792;9.012;2022-07-06T07:35:48;3.40;;;3.00;;
10116;SDS011;5098;48.792;9.012;2022-07-06T07:38:14;3.00;;;2.80;;
10116;SDS011;5098;48.792;9.012;2022-07-06T07:40:40;4.70;;;3.00;;
10116;SDS011;5098;48.792;9.012;2022-07-06T07:43:06;3.60;;;3.30;;
10116;SDS011;5098;48.792;9.012;2022-07-06T07:45:33;3.60;;;2.90;;
10116;SDS011;5098;48.792;9.012;2022-07-06T07:47:59;3.63;;;3.33;;
10116;SDS011;5098;48.792;9.012;2022-07-06T07:50:25;3.80;;;2.77;;
10116;SDS011;5098;48.792;9.012;2022-07-06T07:52:52;5.00;;;3.07;;
10116;SDS011;5098;48.792;9.012;2022-07-06T07:55:18;4.33;;;3.17;;
10116;SDS011;5098;48.792;9.012;2022-07-06T07:57:44;3.80;;;2.97;;
10116;SDS011;5098;48.792;9.012;2022-07-06T08:00:10;4.00;;;2.60;;
10116;SDS011;5098;48.792;9.012;2022-07-06T08:02:36;4.80;;;3.07;;
10116;SDS011;5098;48.792;9.012;2022-07-06T08:05:02;3.50;;;3.20;;
10116;SDS011;5098;48.792;9.012;2022-07-06T08:07:28;4.03;;;3.10;;
10116;SDS011;5098;48.792;9.012;2022-07-06T08:09:55;4.13;;;3.17;;
10116;SDS011;5098;48.792;9.012;2022-07-06T08:12:21;3.70;;;3.17;;
10116;SDS011;5098;48.792;9.012;2022-07-06T08:14:47;4.80;;;2.70;;
10116;SDS011;5098;48.792;9.012;2022-07-06T08:17:13;4.80;;;2.53;;
10116;SDS011;5098;48.792;9.012;2022-07-06T08:19:39;4.67;;;3.10;;
10116;SDS011;5098;48.792;9.012;2022-07-06T08:22:05;3.37;;;2.87;;
10116;SDS011;5098;48.792;9.012;2022-07-06T08:24:32;3.20;;;2.83;;
10116;SDS011;5098;48.792;9.012;2022-07-06T08:26:58;4.17;;;3.10;;
10116;SDS011;5098;48.792;9.012;2022-07-06T08:29:25;4.33;;;2.70;;
10116;SDS011;5098;48.792;9.012;2022-07-06T08:31:51;3.77;;;3.13;;
10116;SDS011;5098;48.792;9.012;2022-07-06T08:34:17;5.40;;;3.47;;
10116;SDS011;5098;48.792;9.012;2022-07-06T08:36:43;7.27;;;3.80;;
10116;SDS011;5098;48.792;9.012;2022-07-06T08:39:09;9.40;;;3.07;;
10116;SDS011;5098;48.792;9.012;2022-07-06T08:41:36;4.13;;;3.13;;
10116;SDS011;5098;48.792;9.012;2022-07-06T08:44:02;3.53;;;3.23;;
10116;SDS011;5098;48.792;9.012;2022-07-06T08:46:29;6.73;;;3.53;;
10116;SDS011;5098;48.792;9.012;2022-07-06T08:48:55;5.00;;;3.30;;
10116;SDS011;5098;48.792;9.012;2022-07-06T08:51:22;3.57;;;3.27;;
10116;SDS011;5098;48.792;9.012;2022-07-06T08:53:50;7.10;;;4.17;;
10116;SDS011;5098;48.792;9.012;2022-07-06T08:56:16;5.27;;;3.43;;
10116;SDS011;5098;48.792;9.012;2022-07-06T08:58:44;4.20;;;3.67;;
10116;SDS011;5098;48.792;9.012;2022-07-06T09:01:10;3.60;;;3.30;;
10116;SDS011;5098;48.792;9.012;2022-07-06T09:03:38;3.90;;;3.50;;
10116;SDS011;5098;48.792;9.012;2022-07-06T09:06:04;6.97;;;3.70;;
10116;SDS011;5098;48.792;9.012;2022-07-06T09:08:32;4.63;;;2.80;;
10116;SDS011;5098;48.792;9.012;2022-07-06T09:10:58;4.03;;;3.53;;
10116;SDS011;5098;48.792;9.012;2022-07-06T09:13:24;5.10;;;3.27;;
10116;SDS011;5098;48.792;9.012;2022-07-06T09:15:50;3.53;;;3.20;;
10116;SDS011;5098;48.792;9.012;2022-07-06T09:18:16;4.43;;;3.07;;
10116;SDS011;5098;48.792;9.012;2022-07-06T09:20:42;4.00;;;3.60;;
10116;SDS011;5098;48.792;9.012;2022-07-06T09:23:08;3.90;;;3.50;;
10116;SDS011;5098;48.792;9.012;2022-07-06T09:25:35;5.70;;;3.80;;
10116;SDS011;5098;48.792;9.012;2022-07-06T09:28:02;4.10;;;3.70;;
10116;SDS011;5098;48.792;9.012;2022-07-06T09:30:30;4.77;;;3.30;;
10116;SDS011;5098;48.792;9.012;2022-07-06T09:32:57;4.13;;;3.43;;
10116;SDS011;5098;48.792;9.012;2022-07-06T09:38:03;5.33;;;3.77;;
10116;SDS011;5098;48.792;9.012;2022-07-06T09:40:30;5.00;;;3.37;;
10116;SDS011;5098;48.792;9.012;2022-07-06T09:43:07;3.57;;;3.00;;
10116;SDS011;5098;48.792;9.012;2022-07-06T09:45:34;5.47;;;3.10;;
10116;SDS011;5098;48.792;9.012;2022-07-06T09:48:20;6.17;;;4.10;;
10116;SDS011;5098;48.792;9.012;2022-07-06T09:50:56;6.53;;;3.80;;
10116;SDS011;5098;48.792;9.012;2022-07-06T09:53:23;4.07;;;3.40;;
10116;SDS011;5098;48.792;9.012;2022-07-06T09:55:51;4.70;;;3.20;;
10116;SDS011;5098;48.792;9.012;2022-07-06T09:58:17;3.67;;;3.27;;
10116;SDS011;5098;48.792;9.012;2022-07-06T10:00:44;4.50;;;2.90;;
10116;SDS011;5098;48.792;9.012;2022-07-06T10:03:11;6.37;;;3.73;;
10116;SDS011;5098;48.792;9.012;2022-07-06T10:05:38;3.73;;;3.10;;
10116;SDS011;5098;48.792;9.012;2022-07-06T10:08:05;5.27;;;3.40;;
10116;SDS011;5098;48.792;9.012;2022-07-06T10:10:34;5.10;;;3.47;;
10116;SDS011;5098;48.792;9.012;2022-07-06T10:13:00;6.23;;;3.70;;
10116;SDS011;5098;48.792;9.012;2022-07-06T10:15:29;4.17;;;3.50;;
10116;SDS011;5098;48.792;9.012;2022-07-06T10:18:02;9.53;;;4.00;;
10116;SDS011;5098;48.792;9.012;2022-07-06T10:20:30;6.00;;;3.50;;
10116;SDS011;5098;48.792;9.012;2022-07-06T10:23:00;3.70;;;3.40;;
10116;SDS011;5098;48.792;9.012;2022-07-06T10:25:27;4.73;;;4.00;;
10116;SDS011;5098;48.792;9.012;2022-07-06T10:27:54;4.97;;;3.47;;
10116;SDS011;5098;48.792;9.012;2022-07-06T10:30:20;4.90;;;3.70;;
10116;SDS011;5098;48.792;9.012;2022-07-06T10:32:47;4.70;;;4.20;;
10116;SDS011;5098;48.792;9.012;2022-07-06T10:35:14;4.80;;;4.30;;
10116;SDS011;5098;48.792;9.012;2022-07-06T10:37:43;5.23;;;3.93;;
10116;SDS011;5098;48.792;9.012;2022-07-06T10:40:09;5.97;;;3.83;;
10116;SDS011;5098;48.792;9.012;2022-07-06T10:42:57;5.37;;;4.23;;
10116;SDS011;5098;48.792;9.012;2022-07-06T10:53:09;5.53;;;3.47;;
10116;SDS011;5098;48.792;9.012;2022-07-06T10:55:37;4.23;;;3.50;;
10116;SDS011;5098;48.792;9.012;2022-07-06T10:58:03;5.70;;;3.70;;
10116;SDS011;5098;48.792;9.012;2022-07-06T11:00:49;6.03;;;3.90;;
10116;SDS011;5098;48.792;9.012;2022-07-06T11:06:00;6.23;;;3.60;;
10116;SDS011;5098;48.792;9.012;2022-07-06T11:08:48;5.83;;;3.90;;
10116;SDS011;5098;48.792;9.012;2022-07-06T11:11:58;5.00;;;3.37;;
10116;SDS011;5098;48.792;9.012;2022-07-06T11:14:06;4.63;;;3.97;;
10116;SDS011;5098;48.792;9.012;2022-07-06T11:16:33;4.73;;;3.90;;
10116;SDS011;5098;48.792;9.012;2022-07-06T11:19:05;5.50;;;3.70;;
10116;SDS011;5098;48.792;9.012;2022-07-06T11:24:02;6.60;;;4.33;;
10116;SDS011;5098;48.792;9.012;2022-07-06T11:26:29;4.33;;;3.93;;
10116;SDS011;5098;48.792;9.012;2022-07-06T11:28:55;5.53;;;3.50;;
10116;SDS011;5098;48.792;9.012;2022-07-06T11:31:24;5.97;;;3.73;;
10116;SDS011;5098;48.792;9.012;2022-07-06T11:33:50;5.60;;;4.67;;
10116;SDS011;5098;48.792;9.012;2022-07-06T11:36:20;4.33;;;3.80;;
10116;SDS011;5098;48.792;9.012;2022-07-06T11:38:48;4.33;;;3.53;;
10116;SDS011;5098;48.792;9.012;2022-07-06T11:41:14;5.90;;;4.43;;
10116;SDS011;5098;48.792;9.012;2022-07-06T11:43:41;5.30;;;4.23;;
10116;SDS011;5098;48.792;9.012;2022-07-06T11:46:19;9.63;;;4.93;;
10116;SDS011;5098;48.792;9.012;2022-07-06T11:48:46;4.30;;;3.90;;
10116;SDS011;5098;48.792;9.012;2022-07-06T11:51:13;6.10;;;4.17;;
10116;SDS011;5098;48.792;9.012;2022-07-06T11:53:43;4.30;;;3.57;;
10116;SDS011;5098;48.792;9.012;2022-07-06T11:56:11;4.17;;;3.77;;
10116;SDS011;5098;48.792;9.012;2022-07-06T11:58:38;4.50;;;4.10;;
10116;SDS011;5098;48.792;9.012;2022-07-06T12:01:09;6.10;;;4.10;;
10116;SDS011;5098;48.792;9.012;2022-07-06T12:03:35;6.63;;;3.93;;
10116;SDS011;5098;48.792;9.012;2022-07-06T12:06:02;5.33;;;3.93;;
10116;SDS011;5098;48.792;9.012;2022-07-06T12:08:28;5.87;;;4.07;;
10116;SDS011;5098;48.792;9.012;2022-07-06T12:10:54;6.30;;;4.00;;
10116;SDS011;5098;48.792;9.012;2022-07-06T12:13:22;5.00;;;3.60;;
10116;SDS011;5098;48.792;9.012;2022-07-06T12:15:49;5.00;;;3.90;;
10116;SDS011;5098;48.792;9.012;2022-07-06T12:18:15;6.17;;;3.73;;
10116;SDS011;5098;48.792;9.012;2022-07-06T12:20:41;4.77;;;3.90;;
10116;SDS011;5098;48.792;9.012;2022-07-06T12:23:08;4.30;;;3.90;;
10116;SDS011;5098;48.792;9.012;2022-07-06T12:25:35;7.00;;;4.40;;
10116;SDS011;5098;48.792;9.012;2022-07-06T12:28:01;5.23;;;4.00;;
10116;SDS011;5098;48.792;9.012;2022-07-06T12:30:28;3.73;;;3.27;;
10116;SDS011;5098;48.792;9.012;2022-07-06T12:33:13;4.60;;;3.43;;
10116;SDS011;5098;48.792;9.012;2022-07-06T12:35:40;6.30;;;3.90;;
10116;SDS011;5098;48.792;9.012;2022-07-06T12:38:06;4.13;;;3.57;;
10116;SDS011;5098;48.792;9.012;2022-07-06T12:40:33;5.77;;;3.20;;
10116;SDS011;5098;48.792;9.012;2022-07-06T12:43:01;4.50;;;3.63;;
10116;SDS011;5098;48.792;9.012;2022-07-06T12:45:28;3.90;;;3.10;;
10116;SDS011;5098;48.792;9.012;2022-07-06T12:48:04;3.90;;;3.53;;
10116;SDS011;5098;48.792;9.012;2022-07-06T12:50:34;4.57;;;4.07;;
10116;SDS011;5098;48.792;9.012;2022-07-06T12:53:01;5.33;;;3.63;;
10116;SDS011;5098;48.792;9.012;2022-07-06T12:55:27;4.00;;;2.70;;
10116;SDS011;5098;48.792;9.012;2022-07-06T12:57:54;3.93;;;3.30;;
10116;SDS011;5098;48.792;9.012;2022-07-06T13:00:21;9.87;;;3.60;;
10116;SDS011;5098;48.792;9.012;2022-07-06T13:02:48;5.33;;;3.43;;
10116;SDS011;5098;48.792;9.012;2022-07-06T13:05:21;3.20;;;2.90;;
10116;SDS011;5098;48.792;9.012;2022-07-06T13:07:52;4.40;;;2.87;;
10116;SDS011;5098;48.792;9.012;2022-07-06T13:10:19;3.90;;;3.30;;
10116;SDS011;5098;48.792;9.012;2022-07-06T13:12:45;4.07;;;3.10;;
10116;SDS011;5098;48.792;9.012;2022-07-06T13:15:12;7.53;;;3.47;;
10116;SDS011;5098;48.792;9.012;2022-07-06T13:17:38;3.93;;;3.33;;
10116;SDS011;5098;48.792;9.012;2022-07-06T13:20:06;3.37;;;2.80;;
10116;SDS011;5098;48.792;9.012;2022-07-06T13:22:33;4.70;;;3.30;;
10116;SDS011;5098;48.792;9.012;2022-07-06T13:24:59;6.13;;;3.33;;
10116;SDS011;5098;48.792;9.012;2022-07-06T13:27:25;5.63;;;3.27;;
10116;SDS011;5098;48.792;9.012;2022-07-06T13:29:51;6.50;;;2.80;;
10116;SDS011;5098;48.792;9.012;2022-07-06T13:32:17;5.77;;;3.30;;
10116;SDS011;5098;48.792;9.012;2022-07-06T13:34:43;7.13;;;3.27;;
10116;SDS011;5098;48.792;9.012;2022-07-06T13:37:09;4.27;;;3.07;;
10116;SDS011;5098;48.792;9.012;2022-07-06T13:39:35;4.00;;;2.67;;
10116;SDS011;5098;48.792;9.012;2022-07-06T13:42:02;4.33;;;3.13;;
10116;SDS011;5098;48.792;9.012;2022-07-06T13:44:28;5.33;;;2.90;;
10116;SDS011;5098;48.792;9.012;2022-07-06T13:46:54;4.20;;;3.30;;
10116;SDS011;5098;48.792;9.012;2022-07-06T13:49:20;3.67;;;2.90;;
10116;SDS011;5098;48.792;9.012;2022-07-06T13:51:46;3.63;;;2.77;;
10116;SDS011;5098;48.792;9.012;2022-07-06T13:54:12;3.13;;;2.80;;
10116;SDS011;5098;48.792;9.012;2022-07-06T13:56:39;4.10;;;3.10;;
10116;SDS011;5098;48.792;9.012;2022-07-06T13:59:05;4.33;;;3.70;;
10116;SDS011;5098;48.792;9.012;2022-07-06T14:01:31;3.90;;;2.90;;
10116;SDS011;5098;48.792;9.012;2022-07-06T14:03:58;6.13;;;2.93;;
10116;SDS011;5098;48.792;9.012;2022-07-06T14:06:24;3.07;;;2.70;;
10116;SDS011;5098;48.792;9.012;2022-07-06T14:08:50;3.77;;;3.03;;
10116;SDS011;5098;48.792;9.012;2022-07-06T14:11:16;4.27;;;2.97;;
10116;SDS011;5098;48.792;9.012;2022-07-06T14:13:42;5.63;;;3.37;;
10116;SDS011;5098;48.792;9.012;2022-07-06T14:16:08;2.93;;;2.60;;
10116;SDS011;5098;48.792;9.012;2022-07-06T14:18:35;4.90;;;3.20;;
10116;SDS011;5098;48.792;9.012;2022-07-06T14:21:01;3.03;;;2.77;;
10116;SDS011;5098;48.792;9.012;2022-07-06T14:23:29;4.60;;;3.20;;
10116;SDS011;5098;48.792;9.012;2022-07-06T14:25:55;4.60;;;2.80;;
10116;SDS011;5098;48.792;9.012;2022-07-06T14:28:22;6.73;;;3.10;;
10116;SDS011;5098;48.792;9.012;2022-07-06T14:30:48;4.03;;;2.67;;
10116;SDS011;5098;48.792;9.012;2022-07-06T14:33:14;5.07;;;2.77;;
10116;SDS011;5098;48.792;9.012;2022-07-06T14:35:42;6.80;;;3.00;;
10116;SDS011;5098;48.792;9.012;2022-07-06T14:38:08;3.93;;;2.77;;
10116;SDS011;5098;48.792;9.012;2022-07-06T14:40:35;5.43;;;2.97;;
10116;SDS011;5098;48.792;9.012;2022-07-06T14:43:01;5.03;;;2.70;;
10116;SDS011;5098;48.792;9.012;2022-07-06T14:45:27;5.83;;;3.03;;
10116;SDS011;5098;48.792;9.012;2022-07-06T14:47:54;4.33;;;2.90;;
10116;SDS011;5098;48.792;9.012;2022-07-06T14:50:20;5.00;;;2.67;;
10116;SDS011;5098;48.792;9.012;2022-07-06T14:52:50;3.70;;;2.80;;
10116;SDS011;5098;48.792;9.012;2022-07-06T14:55:16;4.47;;;2.60;;
10116;SDS011;5098;48.792;9.012;2022-07-06T14:57:42;3.70;;;2.33;;
10116;SDS011;5098;48.792;9.012;2022-07-06T15:00:08;4.53;;;2.50;;
10116;SDS011;5098;48.792;9.012;2022-07-06T15:02:35;6.10;;;2.60;;
10116;SDS011;5098;48.792;9.012;2022-07-06T15:05:01;6.00;;;2.30;;
10116;SDS011;5098;48.792;9.012;2022-07-06T15:07:27;5.20;;;2.50;;
10116;SDS011;5098;48.792;9.012;2022-07-06T15:09:54;4.07;;;2.53;;
10116;SDS011;5098;48.792;9.012;2022-07-06T15:12:20;7.73;;;4.67;;
10116;SDS011;5098;48.792;9.012;2022-07-06T15:14:47;2.90;;;2.70;;